Time,TemperatureF,DewpointF,PressureIn,WindDirection,WindDirectionDegrees,WindSpeedMPH,WindSpeedGustMPH,Humidity,HourlyPrecipIn,Conditions,Clouds,dailyrainin,SoftwareType,DateUTC
2013-07-08 00:25:00,68.7,68.0,30.03,SSW,205,0.0,4.0,97,0.00,,,0.00,weatherlink.com 1.10,2013-07-08 04:25:00,
2013-07-08 00:40:00,68.7,68.0,30.03,SSW,205,0.0,4.0,97,0.00,,,0.00,weatherlink.com 1.10,2013-07-08 04:40:00,
2013-07-08 00:55:00,68.7,68.0,30.03,SSW,205,0.0,1.0,97,0.00,,,0.00,weatherlink.com 1.10,2013-07-08 04:55:00,
2013-07-08 01:10:00,68.4,68.0,30.04,SSW,205,0.0,0.0,97,0.00,,,0.00,weatherlink.com 1.10,2013-07-08 05:10:00,
2013-07-08 01:25:00,68.1,68.0,30.03,SSW,205,0.0,0.0,98,0.00,,,0.00,weatherlink.com 1.10,2013-07-08 05:25:00,
2013-07-08 01:40:00,67.9,67.0,30.03,SSW,205,0.0,0.0,98,0.00,,,0.00,weatherlink.com 1.10,2013-07-08 05:40:00,
2013-07-08 01:55:00,67.7,67.0,30.03,SSW,205,0.0,0.0,98,0.00,,,0.00,weatherlink.com 1.10,2013-07-08 05:55:00,
2013-07-08 02:10:00,67.7,67.0,30.03,SSW,205,0.0,1.0,98,0.00,,,0.00,weatherlink.com 1.10,2013-07-08 06:10:00,
2013-07-08 02:25:00,67.6,67.0,30.03,SSW,205,0.0,0.0,98,0.00,,,0.00,weatherlink.com 1.10,2013-07-08 06:25:00,
2013-07-08 02:41:00,67.4,67.0,30.03,SSW,205,0.0,1.0,99,0.00,,,0.00,weatherlink.com 1.10,2013-07-08 06:41:00,
2013-07-08 02:56:00,67.2,67.0,30.02,SSW,205,0.0,0.0,98,0.00,,,0.00,weatherlink.com 1.10,2013-07-08 06:56:00,
2013-07-08 03:11:00,67.3,67.0,30.02,SSW,205,0.0,1.0,99,0.00,,,0.00,weatherlink.com 1.10,2013-07-08 07:11:00,
2013-07-08 03:26:00,67.2,67.0,30.03,SSW,205,0.0,1.0,99,0.00,,,0.00,weatherlink.com 1.10,2013-07-08 07:26:00,
2013-07-08 03:41:00,67.2,67.0,30.04,SSW,205,0.0,1.0,99,0.00,,,0.00,weatherlink.com 1.10,2013-07-08 07:41:00,
2013-07-08 03:56:00,67.3,67.0,30.04,SSW,205,0.0,0.0,99,0.00,,,0.00,weatherlink.com 1.10,2013-07-08 07:56:00,
2013-07-08 04:11:00,67.3,67.0,30.03,SSW,205,0.0,0.0,99,0.00,,,0.00,weatherlink.com 1.10,2013-07-08 08:11:00,
2013-07-08 04:26:00,67.0,67.0,30.03,SSW,205,0.0,0.0,99,0.00,,,0.00,weatherlink.com 1.10,2013-07-08 08:26:00,
2013-07-08 04:41:00,67.0,67.0,30.04,SSW,205,0.0,0.0,99,0.00,,,0.00,weatherlink.com 1.10,2013-07-08 08:41:00,
2013-07-08 04:56:00,67.1,67.0,30.04,SSW,205,0.0,0.0,99,0.00,,,0.00,weatherlink.com 1.10,2013-07-08 08:56:00,
2013-07-08 05:11:00,67.3,67.0,30.05,SSW,205,0.0,0.0,99,0.00,,,0.00,weatherlink.com 1.10,2013-07-08 09:11:00,
2013-07-08 05:26:00,67.2,67.0,30.05,SSW,205,0.0,0.0,99,0.00,,,0.00,weatherlink.com 1.10,2013-07-08 09:26:00,
2013-07-08 05:41:00,67.5,67.0,30.06,SSW,205,0.0,0.0,99,0.00,,,0.00,weatherlink.com 1.10,2013-07-08 09:41:00,
2013-07-08 05:56:00,67.5,67.0,30.05,SSW,205,0.0,0.0,99,0.00,,,0.00,weatherlink.com 1.10,2013-07-08 09:56:00,
2013-07-08 06:11:00,67.6,67.0,30.05,SSW,205,0.0,0.0,99,0.00,,,0.00,weatherlink.com 1.10,2013-07-08 10:11:00,
2013-07-08 06:26:00,67.8,68.0,30.05,SSW,205,0.0,1.0,99,0.00,,,0.00,weatherlink.com 1.10,2013-07-08 10:26:00,
2013-07-08 06:41:00,68.1,68.0,30.05,SSW,205,0.0,1.0,99,0.00,,,0.00,weatherlink.com 1.10,2013-07-08 10:41:00,
2013-07-08 06:56:00,68.3,68.0,30.05,SSW,205,0.0,0.0,99,0.00,,,0.00,weatherlink.com 1.10,2013-07-08 10:56:00,
2013-07-08 07:11:00,68.5,68.0,30.05,SSW,205,0.0,1.0,99,0.00,,,0.00,weatherlink.com 1.10,2013-07-08 11:11:00,
2013-07-08 07:26:00,68.8,69.0,30.06,SSW,205,0.0,1.0,99,0.00,,,0.00,weatherlink.com 1.10,2013-07-08 11:26:00,
2013-07-08 07:41:00,69.2,69.0,30.06,SSW,205,0.0,1.0,99,0.00,,,0.00,weatherlink.com 1.10,2013-07-08 11:41:00,
2013-07-08 07:56:00,70.3,70.0,30.06,SSW,205,0.0,2.0,99,0.00,,,0.00,weatherlink.com 1.10,2013-07-08 11:56:00,
2013-07-08 08:11:00,71.2,70.0,30.07,SSW,205,1.0,5.0,97,0.00,,,0.00,weatherlink.com 1.10,2013-07-08 12:11:00,
2013-07-08 08:26:00,72.2,71.0,30.07,NW,312,0.0,4.0,95,0.00,,,0.00,weatherlink.com 1.10,2013-07-08 12:26:00,
2013-07-08 08:41:00,73.1,71.0,30.07,NW,312,0.0,3.0,94,0.00,,,0.00,weatherlink.com 1.10,2013-07-08 12:41:00,
2013-07-08 08:56:00,74.2,72.0,30.07,WNW,292,0.0,5.0,92,0.00,,,0.00,weatherlink.com 1.10,2013-07-08 12:56:00,
2013-07-08 09:11:00,74.7,71.0,30.07,WSW,252,4.0,5.0,88,0.00,,,0.00,weatherlink.com 1.10,2013-07-08 13:11:00,
2013-07-08 09:26:00,76.2,73.0,30.07,NNW,335,4.0,8.0,89,0.00,,,0.00,weatherlink.com 1.10,2013-07-08 13:26:00,
2013-07-08 09:41:00,77.6,73.0,30.07,WNW,287,2.0,7.0,85,0.00,,,0.00,weatherlink.com 1.10,2013-07-08 13:41:00,
2013-07-08 09:56:00,76.3,72.0,30.07,NW,306,1.0,9.0,85,0.00,,,0.00,weatherlink.com 1.10,2013-07-08 13:56:00,
2013-07-08 10:11:00,76.1,71.0,30.07,North,355,3.0,7.0,85,0.00,,,0.00,weatherlink.com 1.10,2013-07-08 14:11:00,
2013-07-08 10:27:00,76.7,72.0,30.07,West,268,2.0,9.0,85,0.00,,,0.00,weatherlink.com 1.10,2013-07-08 14:27:00,
2013-07-08 10:42:00,77.1,71.0,30.07,WNW,302,5.0,6.0,82,0.00,,,0.00,weatherlink.com 1.10,2013-07-08 14:42:00,
2013-07-08 10:57:00,77.1,71.0,30.08,NW,306,0.0,6.0,80,0.00,,,0.00,weatherlink.com 1.10,2013-07-08 14:57:00,
2013-07-08 11:12:00,78.0,72.0,30.08,NW,316,3.0,6.0,81,0.00,,,0.00,weatherlink.com 1.10,2013-07-08 15:12:00,
2013-07-08 11:27:00,78.3,72.0,30.07,West,276,3.0,5.0,80,0.00,,,0.00,weatherlink.com 1.10,2013-07-08 15:27:00,
2013-07-08 11:41:00,79.7,72.0,30.07,NW,306,3.0,8.0,77,0.00,,,0.00,weatherlink.com 1.10,2013-07-08 15:41:00,
2013-07-08 11:57:00,78.8,71.0,30.07,NW,321,0.0,7.0,77,0.00,,,0.00,weatherlink.com 1.10,2013-07-08 15:57:00,
2013-07-08 12:12:00,79.3,71.0,30.07,WNW,287,4.0,5.0,76,0.00,,,0.00,weatherlink.com 1.10,2013-07-08 16:12:00,
2013-07-08 12:27:00,80.8,71.0,30.06,NNW,336,5.0,6.0,72,0.00,,,0.00,weatherlink.com 1.10,2013-07-08 16:27:00,
2013-07-08 12:42:00,81.2,71.0,30.07,NW,320,3.0,8.0,71,0.00,,,0.00,weatherlink.com 1.10,2013-07-08 16:42:00,
2013-07-08 13:12:00,81.2,70.0,30.06,NW,323,0.0,9.0,68,0.00,,,0.00,weatherlink.com 1.10,2013-07-08 17:12:00,
2013-07-08 13:27:00,82.5,70.0,30.05,WNW,298,1.0,6.0,67,0.00,,,0.00,weatherlink.com 1.10,2013-07-08 17:27:00,
2013-07-08 13:57:00,82.0,70.0,30.05,SW,229,0.0,6.0,67,0.00,,,0.00,weatherlink.com 1.10,2013-07-08 17:57:00,
2013-07-08 14:27:00,83.5,72.0,30.04,NW,309,4.0,9.0,68,0.00,,,0.00,weatherlink.com 1.10,2013-07-08 18:27:00,
2013-07-08 14:42:00,83.7,71.0,30.04,NW,309,5.0,12.0,65,0.00,,,0.00,weatherlink.com 1.10,2013-07-08 18:42:00,
2013-07-08 15:12:00,77.2,69.0,30.05,NW,315,8.0,14.0,75,0.00,,,0.00,weatherlink.com 1.10,2013-07-08 19:12:00,
2013-07-08 16:12:00,80.8,67.0,30.03,SSW,192,0.0,8.0,63,0.00,,,0.00,weatherlink.com 1.10,2013-07-08 20:12:00,
2013-07-08 16:42:00,80.9,67.0,30.03,WSW,238,4.0,5.0,62,0.00,,,0.00,weatherlink.com 1.10,2013-07-08 20:42:00,
2013-07-08 16:57:00,81.6,68.0,30.02,West,265,4.0,7.0,64,0.00,,,0.00,weatherlink.com 1.10,2013-07-08 20:57:00,
2013-07-08 17:12:00,80.7,69.0,30.02,SW,235,1.0,6.0,67,0.00,,,0.00,weatherlink.com 1.10,2013-07-08 21:12:00,
2013-07-08 17:42:00,81.1,68.0,30.01,SW,226,2.0,5.0,64,0.00,,,0.00,weatherlink.com 1.10,2013-07-08 21:42:00,
2013-07-08 18:12:00,81.3,68.0,30.02,SW,216,5.0,9.0,64,0.00,,,0.00,weatherlink.com 1.10,2013-07-08 22:12:00,
2013-07-08 18:27:00,81.0,68.0,30.02,WNW,301,2.0,8.0,65,0.00,,,0.00,weatherlink.com 1.10,2013-07-08 22:27:00,
2013-07-08 18:42:00,80.9,69.0,30.02,WNW,302,1.0,6.0,68,0.00,,,0.00,weatherlink.com 1.10,2013-07-08 22:42:00,
2013-07-08 18:57:00,80.7,70.0,30.02,NNW,328,5.0,6.0,69,0.00,,,0.00,weatherlink.com 1.10,2013-07-08 22:57:00,
2013-07-08 19:12:00,80.4,69.0,30.02,NW,308,3.0,5.0,69,0.00,,,0.00,weatherlink.com 1.10,2013-07-08 23:12:00,
2013-07-08 19:27:00,79.6,69.0,30.02,NW,310,0.0,4.0,70,0.00,,,0.00,weatherlink.com 1.10,2013-07-08 23:27:00,
2013-07-08 19:57:00,76.5,69.0,30.04,NW,314,0.0,1.0,77,0.00,,,0.00,weatherlink.com 1.10,2013-07-08 23:57:00,
2013-07-08 20:12:00,74.4,69.0,30.04,NW,314,0.0,1.0,82,0.00,,,0.00,weatherlink.com 1.10,2013-07-09 00:12:00,
2013-07-08 20:27:00,73.8,69.0,30.05,NW,314,0.0,0.0,84,0.00,,,0.00,weatherlink.com 1.10,2013-07-09 00:27:00,
2013-07-08 20:42:00,72.9,68.0,30.05,NW,314,0.0,0.0,84,0.00,,,0.00,weatherlink.com 1.10,2013-07-09 00:42:00,
2013-07-08 20:57:00,72.0,68.0,30.05,NW,314,0.0,0.0,87,0.00,,,0.00,weatherlink.com 1.10,2013-07-09 00:57:00,
2013-07-08 21:12:00,71.4,68.0,30.05,NW,314,0.0,0.0,88,0.00,,,0.00,weatherlink.com 1.10,2013-07-09 01:12:00,
2013-07-08 21:42:00,70.2,68.0,30.06,NW,314,0.0,0.0,92,0.00,,,0.00,weatherlink.com 1.10,2013-07-09 01:42:00,
2013-07-08 21:57:00,69.8,68.0,30.06,NW,314,0.0,0.0,93,0.00,,,0.00,weatherlink.com 1.10,2013-07-09 01:57:00,
2013-07-08 22:27:00,69.9,68.0,30.07,NW,314,0.0,0.0,93,0.00,,,0.00,weatherlink.com 1.10,2013-07-09 02:27:00,
2013-07-08 22:42:00,69.3,67.0,30.06,NW,314,0.0,0.0,93,0.00,,,0.00,weatherlink.com 1.10,2013-07-09 02:42:00,
2013-07-08 22:57:00,69.0,67.0,30.07,NW,314,0.0,0.0,94,0.00,,,0.00,weatherlink.com 1.10,2013-07-09 02:57:00,
2013-07-08 23:12:00,68.8,67.0,30.07,NW,314,0.0,0.0,95,0.00,,,0.00,weatherlink.com 1.10,2013-07-09 03:12:00,
2013-07-08 23:27:00,68.5,67.0,30.07,NW,314,0.0,0.0,96,0.00,,,0.00,weatherlink.com 1.10,2013-07-09 03:27:00,